Terminal Aerodrome Forecast
Issued by NWS

Home | Current Version | Previous Version | Text Only | Print | Product List | Glossary On
Versions: 1 2 3 4 5 6 7 8 9 10 11 12 13 14 15
000
FTUS44 KOHX 311400 AAA
TAFCKV
TAF AMD
KCKV 311426Z 3114/0112 11004KT P6SM SCT200
     FM311600 16005KT P6SM SCT060 BKN100
     FM010700 VRB02KT 3SM BR FEW003 SCT070=

USA.gov is the U.S. government's official web portal to all federal, state and local government web resources and services.